createdAt,value
2022-10-06T00:01:12.670Z,101202.31
2022-10-06T00:03:40.759Z,101205.13
2022-10-06T00:06:09.481Z,101202.75
2022-10-06T00:08:39.064Z,101216.44
2022-10-06T00:11:08.020Z,101211.31
2022-10-06T00:13:37.393Z,101217.59
2022-10-06T00:16:11.090Z,101217.66
2022-10-06T00:18:39.094Z,101218.75
2022-10-06T00:21:07.173Z,101226.63
2022-10-06T00:23:35.136Z,101230.50
2022-10-06T00:26:02.897Z,101227.50
2022-10-06T00:28:31.194Z,101229.03
2022-10-06T00:31:03.661Z,101242.66
2022-10-06T00:33:31.469Z,101233.19
2022-10-06T00:36:00.858Z,101229.88
2022-10-06T00:38:29.527Z,101238.53
2022-10-06T00:40:57.710Z,101235.94
2022-10-06T00:43:46.926Z,101236.78
2022-10-06T00:46:22.171Z,101248.13
2022-10-06T00:48:54.701Z,101249.19
2022-10-06T00:51:23.819Z,101245.44
2022-10-06T00:53:51.981Z,101246.44
2022-10-06T00:56:19.982Z,101250.28
2022-10-06T00:58:47.776Z,101249.09
2022-10-06T01:01:17.287Z,101245.19
2022-10-06T01:03:49.994Z,101246.63
2022-10-06T01:06:17.785Z,101254.13
2022-10-06T01:08:46.761Z,101264.09
2022-10-06T01:11:15.071Z,101261.44
2022-10-06T01:13:45.132Z,101259.09
2022-10-06T01:16:20.875Z,101259.66
2022-10-06T01:18:49.472Z,101258.69
2022-10-06T01:21:24.718Z,101267.50
2022-10-06T01:23:54.062Z,101270.13
2022-10-06T01:26:24.572Z,101267.75
2022-10-06T01:28:52.706Z,101269.44
2022-10-06T01:31:21.587Z,101267.75
2022-10-06T01:33:52.726Z,101277.66
2022-10-06T01:36:20.667Z,101277.97
2022-10-06T01:38:50.041Z,101282.88
2022-10-06T01:41:19.524Z,101285.06
2022-10-06T01:43:47.588Z,101282.31
2022-10-06T01:46:15.359Z,101277.41
2022-10-06T01:48:43.209Z,101288.03
2022-10-06T01:51:15.851Z,101278.22
2022-10-06T01:53:43.871Z,101279.09
2022-10-06T01:56:11.698Z,101278.38
2022-10-06T01:58:41.339Z,101282.56
2022-10-06T02:01:10.578Z,101276.69
2022-10-06T02:03:40.179Z,101284.66
2022-10-06T02:06:10.091Z,101276.97
2022-10-06T02:08:37.935Z,101280.19
2022-10-06T02:11:28.053Z,101279.50
2022-10-06T02:13:57.412Z,101283.53
2022-10-06T02:16:25.286Z,101276.69
2022-10-06T02:18:54.617Z,101280.16
2022-10-06T02:21:24.150Z,101290.00
2022-10-06T02:23:52.104Z,101287.88
2022-10-06T02:26:20.160Z,101292.72
2022-10-06T02:28:50.787Z,101288.75
2022-10-06T02:31:23.615Z,101299.50
2022-10-06T02:33:52.577Z,101299.34
2022-10-06T02:36:22.543Z,101303.50
2022-10-06T02:38:50.417Z,101305.94
2022-10-06T02:41:18.822Z,101307.56
2022-10-06T02:43:47.593Z,101314.25
2022-10-06T02:46:16.412Z,101306.97
2022-10-06T02:48:53.712Z,101309.47
2022-10-06T02:51:23.787Z,101311.84
2022-10-06T02:53:52.614Z,101316.09
2022-10-06T02:56:23.244Z,101323.34
2022-10-06T02:58:51.825Z,101325.16
2022-10-06T03:01:32.099Z,101327.00
2022-10-06T03:04:06.580Z,101327.50
2022-10-06T03:06:35.414Z,101319.53
2022-10-06T03:09:11.100Z,101324.19
2022-10-06T03:11:43.590Z,101328.97
2022-10-06T03:14:21.312Z,101335.19
2022-10-06T03:16:51.505Z,101348.53
2022-10-06T03:19:27.008Z,101350.50
2022-10-06T03:21:55.316Z,101346.31
2022-10-06T03:24:29.124Z,101357.03
2022-10-06T03:26:59.561Z,101355.28
2022-10-06T03:29:30.889Z,101360.84
2022-10-06T03:31:58.903Z,101374.28
2022-10-06T03:34:28.430Z,101377.50
2022-10-06T03:36:57.996Z,101384.69
2022-10-06T03:39:27.821Z,101388.44
2022-10-06T03:41:55.621Z,101380.66
2022-10-06T03:44:23.757Z,101411.03
2022-10-06T03:46:51.635Z,101418.06
2022-10-06T03:49:20.254Z,101431.28
2022-10-06T03:51:49.736Z,101425.44
2022-10-06T03:54:22.589Z,101442.16
2022-10-06T03:56:52.241Z,101451.34
2022-10-06T03:59:20.831Z,101452.94
2022-10-06T04:01:49.720Z,101456.06
2022-10-06T04:04:25.259Z,101452.44
2022-10-06T04:07:00.096Z,101451.06
2022-10-06T04:09:28.163Z,101464.75
2022-10-06T04:11:57.334Z,101482.53
2022-10-06T04:14:25.132Z,101485.66
2022-10-06T04:16:53.285Z,101485.38
2022-10-06T04:19:37.809Z,101496.47
2022-10-06T04:22:06.892Z,101499.94
2022-10-06T04:24:35.409Z,101512.50
2022-10-06T04:27:17.661Z,101514.19
2022-10-06T04:29:51.245Z,101515.16
2022-10-06T04:32:19.045Z,101511.69
2022-10-06T04:34:46.862Z,101518.47
2022-10-06T04:37:16.392Z,101513.66
2022-10-06T04:39:45.325Z,101517.34
2022-10-06T04:42:13.569Z,101517.91
2022-10-06T04:44:41.438Z,101521.97
2022-10-06T04:47:09.236Z,101520.16
2022-10-06T04:49:37.148Z,101536.13
2022-10-06T04:52:05.572Z,101528.28
2022-10-06T04:54:36.435Z,101550.38
2022-10-06T04:57:05.843Z,101555.53
2022-10-06T04:59:51.312Z,101547.53
2022-10-06T05:02:20.771Z,101549.59
2022-10-06T05:04:52.411Z,101560.47
2022-10-06T05:07:22.143Z,101565.34
2022-10-06T05:09:51.392Z,101573.84
2022-10-06T05:12:19.333Z,101570.50
2022-10-06T05:14:47.278Z,101584.91
2022-10-06T05:17:16.030Z,101589.97
2022-10-06T05:19:44.290Z,101593.00
2022-10-06T05:22:14.641Z,101612.34
2022-10-06T05:24:42.830Z,101605.56
2022-10-06T05:27:12.097Z,101611.97
2022-10-06T05:29:40.540Z,101614.66
2022-10-06T05:32:10.069Z,101625.03
2022-10-06T05:34:41.390Z,101625.88
2022-10-06T05:37:09.318Z,101638.44
2022-10-06T05:39:37.403Z,101642.94
2022-10-06T05:42:05.422Z,101655.66
2022-10-06T05:44:37.716Z,101657.13
2022-10-06T05:47:09.982Z,101658.72
2022-10-06T05:49:37.935Z,101668.69
2022-10-06T05:52:06.208Z,101674.03
2022-10-06T05:54:36.652Z,101687.34
2022-10-06T05:57:05.834Z,101696.16
2022-10-06T05:59:34.816Z,101703.03
2022-10-06T06:02:05.993Z,101717.97
2022-10-06T06:04:38.975Z,101714.00
2022-10-06T06:07:07.340Z,101731.38
2022-10-06T06:09:35.126Z,101730.69
2022-10-06T06:12:04.944Z,101745.50
2022-10-06T06:15:10.496Z,101765.03
2022-10-06T06:18:04.840Z,101770.47
2022-10-06T06:20:33.073Z,101776.84
2022-10-06T06:23:01.437Z,101786.34
2022-10-06T06:25:31.282Z,101797.94
2022-10-06T06:27:59.370Z,101790.94
2022-10-06T06:30:27.234Z,101798.41
2022-10-06T06:32:58.084Z,101812.50
2022-10-06T06:35:30.159Z,101814.91
2022-10-06T06:37:59.445Z,101824.66
2022-10-06T06:40:27.700Z,101823.22
2022-10-06T06:42:55.748Z,101827.69
2022-10-06T06:45:39.414Z,101836.47
2022-10-06T06:48:16.719Z,101836.94
2022-10-06T06:50:57.086Z,101844.88
2022-10-06T06:53:25.201Z,101857.88
2022-10-06T06:55:56.922Z,101867.75
2022-10-06T06:58:25.186Z,101880.44
2022-10-06T07:00:57.150Z,101873.69
2022-10-06T07:03:52.260Z,101870.56
2022-10-06T07:06:18.477Z,101884.28
2022-10-06T07:08:50.935Z,101887.56
2022-10-06T07:11:23.061Z,101892.25
2022-10-06T07:13:54.016Z,101902.59
2022-10-06T07:16:41.019Z,101902.09
2022-10-06T07:19:28.442Z,101900.41
2022-10-06T07:22:17.760Z,101908.81
2022-10-06T07:25:06.921Z,101911.22
2022-10-06T07:27:42.393Z,101916.31
2022-10-06T07:30:15.010Z,101922.78
2022-10-06T07:32:43.501Z,101933.91
2022-10-06T07:35:11.499Z,101933.03
2022-10-06T07:37:40.987Z,101942.59
2022-10-06T07:40:10.575Z,101959.94
2022-10-06T07:42:48.876Z,101956.97
2022-10-06T07:45:42.236Z,101973.00
2022-10-06T07:48:36.982Z,101966.38
2022-10-06T07:51:07.066Z,101979.88
2022-10-06T07:53:39.272Z,101962.19
2022-10-06T07:56:33.436Z,101970.88
2022-10-06T07:59:01.367Z,101972.69
2022-10-06T08:01:30.186Z,101973.28
2022-10-06T08:03:59.255Z,101985.47
2022-10-06T08:06:27.362Z,101982.53
2022-10-06T08:08:56.681Z,101992.44
2022-10-06T08:11:24.641Z,101992.66
2022-10-06T08:13:52.785Z,102000.16
2022-10-06T08:16:23.573Z,102003.53
2022-10-06T08:18:53.307Z,102011.44
2022-10-06T08:21:24.934Z,102023.94
2022-10-06T08:23:54.921Z,102024.50
2022-10-06T08:26:26.307Z,102016.41
2022-10-06T08:28:57.498Z,102023.88
2022-10-06T08:31:25.673Z,102027.28
2022-10-06T08:33:56.254Z,102044.47
2022-10-06T08:36:31.059Z,102038.09
2022-10-06T08:39:01.088Z,102050.56
2022-10-06T08:41:39.690Z,102052.13
2022-10-06T08:44:19.560Z,102061.16
2022-10-06T08:46:55.164Z,102061.63
2022-10-06T08:49:26.863Z,102060.56
2022-10-06T08:52:06.583Z,102055.25
2022-10-06T08:54:42.212Z,102062.09
2022-10-06T08:57:19.854Z,102068.69
2022-10-06T08:59:53.427Z,102093.69
2022-10-06T09:02:29.656Z,102094.66
2022-10-06T09:05:01.554Z,102084.69
2022-10-06T09:07:39.667Z,102102.34
2022-10-06T09:10:31.532Z,102085.28
2022-10-06T09:13:07.656Z,102088.47
2022-10-06T09:15:41.172Z,102094.13
2022-10-06T09:18:17.364Z,102101.63
2022-10-06T09:20:51.380Z,102108.81
2022-10-06T09:23:41.727Z,102107.63
2022-10-06T09:26:13.745Z,102122.75
2022-10-06T09:28:46.315Z,102117.56
2022-10-06T09:31:23.485Z,102123.13
2022-10-06T09:33:55.471Z,102127.66
2022-10-06T09:37:02.917Z,102134.59
2022-10-06T09:39:36.800Z,102130.63
2022-10-06T09:42:08.067Z,102129.56
2022-10-06T09:44:48.269Z,102124.59
2022-10-06T09:47:41.789Z,102137.25
2022-10-06T09:50:24.443Z,102145.03
2022-10-06T09:53:16.169Z,102145.31
2022-10-06T09:55:51.559Z,102140.84
2022-10-06T09:58:23.806Z,102154.22
2022-10-06T10:00:57.964Z,102147.91
2022-10-06T10:03:27.944Z,102151.56
2022-10-06T10:05:56.490Z,102149.63
2022-10-06T10:08:27.384Z,102157.59
2022-10-06T10:11:45.507Z,102154.00
2022-10-06T10:14:18.099Z,102158.19
2022-10-06T10:16:53.103Z,102164.63
2022-10-06T10:19:27.962Z,102166.28
2022-10-06T10:21:57.503Z,102166.78
2022-10-06T10:24:47.956Z,102167.63
2022-10-06T10:27:26.715Z,102167.38
2022-10-06T10:30:09.232Z,102174.88
2022-10-06T10:32:46.798Z,102167.75
2022-10-06T10:35:21.059Z,102169.22
2022-10-06T10:37:52.063Z,102186.63
2022-10-06T10:40:30.433Z,102183.47
2022-10-06T10:43:08.988Z,102189.75
2022-10-06T10:45:42.489Z,102182.66
2022-10-06T10:48:17.698Z,102192.94
2022-10-06T10:50:52.026Z,102195.25
2022-10-06T10:53:28.817Z,102187.84
2022-10-06T10:55:58.400Z,102185.06
2022-10-06T10:58:31.621Z,102178.28
2022-10-06T11:01:06.298Z,102191.34
2022-10-06T11:03:35.813Z,102193.28
2022-10-06T11:06:27.446Z,102195.81
2022-10-06T11:09:02.196Z,102192.59
2022-10-06T11:11:51.278Z,102197.75
2022-10-06T11:14:31.257Z,102196.03
2022-10-06T11:17:13.052Z,102192.25
2022-10-06T11:19:52.615Z,102200.03
2022-10-06T11:22:27.783Z,102198.03
2022-10-06T11:27:45.601Z,102212.00
2022-10-06T11:30:18.421Z,102215.63
2022-10-06T11:33:01.532Z,102218.91
2022-10-06T11:35:38.368Z,102214.53
2022-10-06T11:38:16.682Z,102219.03
2022-10-06T11:40:55.881Z,102218.44
2022-10-06T11:43:34.440Z,102220.31
2022-10-06T11:46:09.735Z,102220.31
2022-10-06T11:48:37.861Z,102221.03
2022-10-06T11:51:30.080Z,102223.38
2022-10-06T11:53:58.790Z,102215.13
2022-10-06T11:56:45.917Z,102222.34
2022-10-06T11:59:25.172Z,102229.03
2022-10-06T12:01:58.775Z,102219.16
2022-10-06T12:04:29.849Z,102223.94
2022-10-06T12:07:03.856Z,102241.25
2022-10-06T12:09:54.242Z,102237.38
2022-10-06T12:13:31.794Z,102231.16
2022-10-06T12:19:04.523Z,102246.16
2022-10-06T12:21:45.693Z,102246.53
2022-10-06T12:24:29.014Z,102242.09
2022-10-06T12:27:22.049Z,102248.50
2022-10-06T12:30:01.702Z,102223.97
2022-10-06T12:32:46.591Z,102233.31
2022-10-06T12:35:32.248Z,102234.41
2022-10-06T12:38:04.865Z,102242.41
2022-10-06T12:40:55.523Z,102245.06
2022-10-06T12:43:35.683Z,102244.59
2022-10-06T12:46:08.139Z,102248.97
2022-10-06T12:48:42.294Z,102248.19
2022-10-06T12:51:25.227Z,102250.59
2022-10-06T12:54:03.303Z,102260.56
2022-10-06T12:56:38.259Z,102259.88
2022-10-06T12:59:23.968Z,102253.84
2022-10-06T13:01:55.552Z,102256.25
2022-10-06T13:04:49.147Z,102256.41
2022-10-06T13:07:19.725Z,102259.97
2022-10-06T13:09:49.994Z,102255.66
2022-10-06T13:12:31.130Z,102245.34
2022-10-06T13:15:16.377Z,102250.47
2022-10-06T13:17:45.853Z,102261.00
2022-10-06T13:20:21.741Z,102244.22
2022-10-06T13:22:57.498Z,102249.78
2022-10-06T13:25:27.021Z,102263.88
2022-10-06T13:27:57.041Z,102258.91
2022-10-06T13:30:25.325Z,102262.47
2022-10-06T13:32:55.288Z,102262.22
2022-10-06T13:35:25.605Z,102263.56
2022-10-06T13:37:55.306Z,102260.63
2022-10-06T13:40:44.191Z,102270.72
2022-10-06T13:43:19.394Z,102270.63
2022-10-06T13:45:49.408Z,102272.56
2022-10-06T13:48:22.118Z,102270.25
2022-10-06T13:50:50.403Z,102271.34
2022-10-06T13:53:27.246Z,102273.16
2022-10-06T13:55:55.772Z,102278.78
2022-10-06T13:58:27.873Z,102282.66
2022-10-06T14:01:00.467Z,102285.03
2022-10-06T14:03:33.737Z,102278.56
2022-10-06T14:06:17.339Z,102278.22
2022-10-06T14:08:50.624Z,102270.75
2022-10-06T14:11:25.135Z,102277.50
2022-10-06T14:13:58.960Z,102282.91
2022-10-06T14:16:28.582Z,102273.38
2022-10-06T14:18:58.347Z,102285.00
2022-10-06T14:21:33.921Z,102284.88
2022-10-06T14:24:06.154Z,102286.47
2022-10-06T14:26:37.385Z,102291.03
2022-10-06T14:29:06.585Z,102288.63
2022-10-06T14:31:34.715Z,102292.13
2022-10-06T14:34:03.937Z,102290.56
2022-10-06T14:36:33.504Z,102293.72
2022-10-06T14:39:02.664Z,102295.66
2022-10-06T14:41:31.062Z,102293.63
2022-10-06T14:44:01.799Z,102297.63
2022-10-06T14:46:32.242Z,102295.44
2022-10-06T14:49:00.620Z,102294.47
2022-10-06T14:51:31.029Z,102292.69
2022-10-06T14:54:03.421Z,102292.69
2022-10-06T14:56:34.183Z,102295.25
2022-10-06T14:59:05.417Z,102291.59
2022-10-06T15:01:37.187Z,102295.34
2022-10-06T15:04:07.482Z,102297.50
2022-10-06T15:06:52.699Z,102293.28
2022-10-06T15:09:20.846Z,102289.41
2022-10-06T15:11:48.964Z,102294.97
2022-10-06T15:14:17.108Z,102294.75
2022-10-06T15:16:46.582Z,102302.97
2022-10-06T15:19:14.527Z,102300.78
2022-10-06T15:21:45.204Z,102300.41
2022-10-06T15:24:15.522Z,102304.03
2022-10-06T15:27:01.869Z,102304.78
2022-10-06T15:29:30.353Z,102298.38
2022-10-06T15:32:00.793Z,102296.44
2022-10-06T15:34:31.559Z,102307.56
2022-10-06T15:37:00.241Z,102305.75
2022-10-06T15:39:29.982Z,102302.75
2022-10-06T15:41:58.681Z,102304.56
2022-10-06T15:44:27.035Z,102309.75
2022-10-06T15:46:56.891Z,102305.13
2022-10-06T15:49:29.417Z,102311.56
2022-10-06T15:51:59.734Z,102306.94
2022-10-06T15:54:30.075Z,102314.00
2022-10-06T15:56:59.934Z,102317.50
2022-10-06T15:59:32.369Z,102310.63
2022-10-06T16:02:03.837Z,102310.88
2022-10-06T16:04:46.656Z,102308.44
2022-10-06T16:07:16.144Z,102304.81
2022-10-06T16:09:45.817Z,102309.13
2022-10-06T16:12:17.002Z,102315.41
2022-10-06T16:14:45.712Z,102316.88
2022-10-06T16:17:14.933Z,102318.28
2022-10-06T16:19:44.195Z,102319.50
2022-10-06T16:22:14.226Z,102326.38
2022-10-06T16:24:42.687Z,102322.81
2022-10-06T16:27:12.948Z,102326.03
2022-10-06T16:29:41.011Z,102329.91
2022-10-06T16:32:09.036Z,102331.69
2022-10-06T16:34:36.885Z,102327.75
2022-10-06T16:37:06.232Z,102332.88
2022-10-06T16:39:34.385Z,102329.44
2022-10-06T16:42:02.182Z,102332.03
2022-10-06T16:44:30.084Z,102330.94
2022-10-06T16:46:58.039Z,102338.63
2022-10-06T16:49:27.973Z,102335.44
2022-10-06T16:51:55.774Z,102345.44
2022-10-06T16:54:25.535Z,102349.09
2022-10-06T16:56:54.274Z,102345.09
2022-10-06T16:59:23.782Z,102346.41
2022-10-06T17:01:51.930Z,102358.72
2022-10-06T17:04:21.291Z,102359.03
2022-10-06T17:06:51.543Z,102357.84
2022-10-06T17:09:21.563Z,102352.03
2022-10-06T17:11:52.505Z,102364.16
2022-10-06T17:14:21.340Z,102368.59
2022-10-06T17:16:50.659Z,102367.44
2022-10-06T17:19:20.096Z,102372.00
2022-10-06T17:21:51.551Z,102374.63
2022-10-06T17:24:22.534Z,102367.84
2022-10-06T17:26:51.689Z,102378.00
2022-10-06T17:29:21.589Z,102370.41
2022-10-06T17:31:53.343Z,102366.81
2022-10-06T17:34:23.530Z,102370.69
2022-10-06T17:36:52.966Z,102366.28
2022-10-06T17:39:22.774Z,102372.28
2022-10-06T17:41:53.483Z,102368.09
2022-10-06T17:44:25.740Z,102363.84
2022-10-06T17:46:55.725Z,102366.28
2022-10-06T17:49:24.895Z,102372.34
2022-10-06T17:51:54.497Z,102366.41
2022-10-06T17:54:24.669Z,102371.03
2022-10-06T17:56:56.345Z,102372.06
2022-10-06T17:59:28.475Z,102376.25
2022-10-06T18:01:57.460Z,102374.78
2022-10-06T18:04:26.112Z,102379.78
2022-10-06T18:06:55.467Z,102383.47
2022-10-06T18:09:26.080Z,102371.97
2022-10-06T18:11:59.829Z,102378.44
2022-10-06T18:14:32.297Z,102378.88
2022-10-06T18:17:02.346Z,102376.97
2022-10-06T18:19:32.007Z,102381.78
2022-10-06T18:22:01.937Z,102373.28
2022-10-06T18:24:31.726Z,102378.75
2022-10-06T18:27:02.254Z,102376.75
2022-10-06T18:29:31.983Z,102374.13
2022-10-06T18:33:31.050Z,102375.03
2022-10-06T18:37:36.312Z,102377.66
2022-10-06T18:40:06.856Z,102376.31
2022-10-06T18:42:36.052Z,102378.66
2022-10-06T18:45:21.797Z,102382.03
2022-10-06T18:48:07.535Z,102379.75
2022-10-06T18:50:35.487Z,102387.06
2022-10-06T18:53:04.516Z,102390.81
2022-10-06T18:55:32.975Z,102392.41
2022-10-06T18:58:02.242Z,102379.31
2022-10-06T19:00:31.697Z,102381.34
2022-10-06T19:03:00.474Z,102372.28
2022-10-06T19:05:29.002Z,102381.69
2022-10-06T19:07:56.906Z,102384.28
2022-10-06T19:10:25.702Z,102387.44
2022-10-06T19:12:54.211Z,102393.47
2022-10-06T19:15:23.690Z,102392.84
2022-10-06T19:17:51.667Z,102386.50
2022-10-06T19:20:19.867Z,102396.00
2022-10-06T19:22:48.339Z,102394.19
2022-10-06T19:25:18.838Z,102398.19
2022-10-06T19:27:48.684Z,102394.41
2022-10-06T19:30:16.712Z,102402.53
2022-10-06T19:32:46.044Z,102391.91
2022-10-06T19:35:13.980Z,102394.66
2022-10-06T19:37:42.214Z,102400.84
2022-10-06T19:40:15.489Z,102407.50
2022-10-06T19:42:48.409Z,102412.38
2022-10-06T19:45:17.700Z,102415.66
2022-10-06T19:47:47.513Z,102407.34
2022-10-06T19:50:16.998Z,102406.56
2022-10-06T19:52:45.244Z,102411.34
2022-10-06T19:55:13.416Z,102410.47
2022-10-06T19:57:41.842Z,102414.81
2022-10-06T20:00:11.295Z,102406.91
2022-10-06T20:02:43.751Z,102414.03
2022-10-06T20:05:14.745Z,102429.22
2022-10-06T20:07:43.798Z,102425.16
2022-10-06T20:10:12.949Z,102428.50
2022-10-06T20:12:41.513Z,102425.16
2022-10-06T20:15:12.886Z,102428.94
2022-10-06T20:17:42.440Z,102428.81
2022-10-06T20:20:10.953Z,102426.63
2022-10-06T20:22:40.229Z,102427.16
2022-10-06T20:25:08.316Z,102441.19
2022-10-06T20:27:36.149Z,102432.06
2022-10-06T20:30:04.453Z,102435.59
2022-10-06T20:32:32.476Z,102434.38
2022-10-06T20:35:01.869Z,102436.53
2022-10-06T20:37:29.719Z,102432.56
2022-10-06T20:40:16.382Z,102435.97
2022-10-06T20:42:49.047Z,102427.84
2022-10-06T20:45:17.074Z,102431.84
2022-10-06T20:47:45.689Z,102436.53
2022-10-06T20:50:14.472Z,102437.22
2022-10-06T20:52:42.424Z,102440.25
2022-10-06T20:55:11.747Z,102443.88
2022-10-06T20:57:39.747Z,102440.91
2022-10-06T21:00:09.614Z,102442.25
2022-10-06T21:02:37.685Z,102436.59
2022-10-06T21:05:06.599Z,102448.84
2022-10-06T21:07:34.618Z,102442.81
2022-10-06T21:10:02.589Z,102442.81
2022-10-06T21:12:34.533Z,102442.59
2022-10-06T21:15:03.590Z,102439.78
2022-10-06T21:17:31.410Z,102444.31
2022-10-06T21:19:59.280Z,102434.31
2022-10-06T21:22:29.781Z,102433.56
2022-10-06T21:24:57.653Z,102431.25
2022-10-06T21:27:25.590Z,102437.19
2022-10-06T21:29:55.236Z,102431.13
2022-10-06T21:32:23.087Z,102432.31
2022-10-06T21:34:51.071Z,102434.06
2022-10-06T21:37:18.847Z,102420.94
2022-10-06T21:39:46.751Z,102421.41
2022-10-06T21:42:14.658Z,102427.91
2022-10-06T21:44:42.559Z,102419.22
2022-10-06T21:47:11.821Z,102415.47
2022-10-06T21:49:39.797Z,102417.66
2022-10-06T21:52:10.028Z,102415.28
2022-10-06T21:54:38.239Z,102424.94
2022-10-06T21:57:07.988Z,102419.56
2022-10-06T21:59:35.828Z,102422.56
2022-10-06T22:02:03.701Z,102413.09
2022-10-06T22:04:33.400Z,102418.59
2022-10-06T22:07:01.419Z,102420.47
2022-10-06T22:09:29.274Z,102413.69
2022-10-06T22:11:57.139Z,102412.16
2022-10-06T22:14:24.979Z,102416.50
2022-10-06T22:16:52.842Z,102413.81
2022-10-06T22:19:20.738Z,102415.22
2022-10-06T22:21:50.018Z,102410.44
2022-10-06T22:24:19.719Z,102408.34
2022-10-06T22:26:48.320Z,102400.94
2022-10-06T22:29:18.465Z,102406.09
2022-10-06T22:31:47.910Z,102399.94
2022-10-06T22:34:18.610Z,102398.63
2022-10-06T22:36:47.111Z,102394.97
2022-10-06T22:39:16.843Z,102402.53
2022-10-06T22:41:45.424Z,102393.88
2022-10-06T22:44:13.375Z,102390.34
2022-10-06T22:46:41.355Z,102395.41
2022-10-06T22:49:09.296Z,102401.41
2022-10-06T22:51:37.220Z,102395.94
2022-10-06T22:54:05.376Z,102393.25
2022-10-06T22:56:34.979Z,102391.72
2022-10-06T22:59:03.132Z,102389.19
2022-10-06T23:01:31.662Z,102393.53
2022-10-06T23:03:59.884Z,102392.53
2022-10-06T23:06:29.729Z,102383.59
2022-10-06T23:08:57.974Z,102386.88
2022-10-06T23:11:25.934Z,102383.50
2022-10-06T23:13:55.808Z,102378.59
2022-10-06T23:16:24.086Z,102379.19
2022-10-06T23:18:52.343Z,102384.97
2022-10-06T23:21:22.635Z,102385.34
2022-10-06T23:23:53.101Z,102386.66
2022-10-06T23:26:24.003Z,102386.94
2022-10-06T23:28:55.676Z,102381.59
2022-10-06T23:31:24.527Z,102377.91
2022-10-06T23:33:52.887Z,102377.75
2022-10-06T23:36:21.031Z,102372.47
2022-10-06T23:38:48.979Z,102373.03
2022-10-06T23:41:17.157Z,102374.13
2022-10-06T23:43:45.139Z,102371.91
2022-10-06T23:46:14.989Z,102372.81
2022-10-06T23:48:43.234Z,102372.25
2022-10-06T23:51:13.562Z,102366.66
2022-10-06T23:53:42.948Z,102378.66
2022-10-06T23:56:11.309Z,102379.75
2022-10-06T23:58:39.713Z,102381.69
